Time;durP1;ratioP1;P1;durP2;ratioP2;P2;SDS_P1;SDS_P2;PMS_P1;PMS_P2;Temp;Humidity;BMP_temperature;BMP_pressure;BME280_temperature;BME280_humidity;BME280_pressure;Samples;Min_cycle;Max_cycle;Signal;HPM_P1;HPM_P2
2021/10/06 00:00:46;;;;;;;21.08;6.60;;;;;;;12.32;66.79;100925.75;5037270;28;20097;-69
2021/10/06 00:03:12;;;;;;;21.00;6.28;;;;;;;12.09;67.27;100925.25;5035885;28;20212;-69
2021/10/06 00:05:37;;;;;;;13.27;6.38;;;;;;;12.24;66.62;100920.34;5028881;28;20240;-69
2021/10/06 00:08:03;;;;;;;15.95;6.95;;;;;;;12.14;66.96;100918.53;5036390;28;20089;-69
2021/10/06 00:10:28;;;;;;;15.27;6.07;;;;;;;12.27;66.55;100915.56;5027513;28;20116;-69
2021/10/06 00:12:54;;;;;;;12.65;6.45;;;;;;;12.34;66.32;100918.50;5034401;28;20106;-69
2021/10/06 00:15:19;;;;;;;19.17;7.03;;;;;;;12.25;66.39;100912.22;5037634;28;20071;-69
2021/10/06 00:17:45;;;;;;;17.67;6.63;;;;;;;12.51;65.61;100909.78;5034210;28;20025;-70
2021/10/06 00:20:12;;;;;;;17.20;7.35;;;;;;;12.69;64.61;100907.19;5036470;28;20014;-69
2021/10/06 00:22:38;;;;;;;18.30;6.90;;;;;;;12.71;64.23;100910.53;5029366;28;20038;-69
2021/10/06 00:25:04;;;;;;;16.98;7.60;;;;;;;12.68;64.09;100913.50;5026039;28;20330;-69
2021/10/06 00:27:30;;;;;;;14.75;7.18;;;;;;;12.77;63.54;100909.94;5037637;28;20029;-69
2021/10/06 00:29:55;;;;;;;18.05;7.82;;;;;;;12.78;63.10;100911.63;5039247;28;20025;-69
2021/10/06 00:32:21;;;;;;;21.00;7.60;;;;;;;12.82;63.61;100910.34;5033774;28;20253;-69
2021/10/06 00:34:47;;;;;;;23.98;8.30;;;;;;;12.66;63.87;100913.63;5037908;28;20029;-70
2021/10/06 00:37:12;;;;;;;19.08;7.50;;;;;;;12.60;63.86;100905.41;5031559;28;20049;-69
2021/10/06 00:39:38;;;;;;;19.35;7.55;;;;;;;12.39;65.28;100909.09;5021777;28;20457;-69
2021/10/06 00:42:03;;;;;;;16.92;7.82;;;;;;;12.41;65.42;100917.75;5027172;28;20066;-69
2021/10/06 00:44:34;;;;;;;33.28;9.00;;;;;;;12.54;65.04;100911.31;5028128;28;20030;-69
2021/10/06 00:46:59;;;;;;;17.27;7.10;;;;;;;12.51;64.72;100906.28;5030691;28;21346;-69
2021/10/06 00:49:25;;;;;;;18.98;8.23;;;;;;;12.59;64.75;100911.72;5029413;28;20382;-70
2021/10/06 00:51:51;;;;;;;21.38;8.30;;;;;;;12.55;64.38;100905.03;5032066;28;20034;-69
2021/10/06 00:54:16;;;;;;;23.98;9.57;;;;;;;12.55;63.96;100905.03;5034894;28;20132;-69
2021/10/06 00:56:41;;;;;;;23.65;7.63;;;;;;;12.47;63.56;100903.06;5027042;28;20025;-69
2021/10/06 00:59:07;;;;;;;21.17;8.57;;;;;;;12.44;62.98;100904.19;5021941;28;20025;-69
2021/10/06 01:01:33;;;;;;;17.48;8.45;;;;;;;12.37;63.95;100896.94;5021081;28;20040;-69
2021/10/06 01:03:58;;;;;;;17.75;7.80;;;;;;;12.23;62.57;100887.63;5030089;28;20334;-69
2021/10/06 01:06:24;;;;;;;17.17;8.70;;;;;;;11.96;65.00;100874.31;5028053;28;20041;-69
2021/10/06 01:08:49;;;;;;;22.20;8.60;;;;;;;11.89;65.56;100875.84;5030544;28;20285;-69
2021/10/06 01:11:15;;;;;;;21.88;8.15;;;;;;;12.02;63.48;100871.06;5027686;28;20026;-69
2021/10/06 01:13:41;;;;;;;18.65;8.73;;;;;;;11.93;64.88;100863.97;5032563;28;20037;-69
2021/10/06 01:16:07;;;;;;;23.50;9.35;;;;;;;11.90;66.21;100861.59;5040551;28;20223;-69
2021/10/06 01:18:32;;;;;;;20.48;8.73;;;;;;;11.94;65.81;100855.03;5039732;28;20227;-69
2021/10/06 01:21:12;;;;;;;30.25;8.60;;;;;;;12.02;64.22;100850.66;5030598;28;20201;-69
2021/10/06 01:23:38;;;;;;;20.15;8.65;;;;;;;11.98;63.42;100848.44;5032708;28;20098;-70
2021/10/06 01:26:03;;;;;;;22.77;9.23;;;;;;;11.90;65.18;100850.97;5021642;28;20083;-69
2021/10/06 01:28:29;;;;;;;19.95;8.52;;;;;;;11.69;63.95;100844.00;5040858;28;20234;-69
2021/10/06 01:30:55;;;;;;;19.05;9.15;;;;;;;11.50;65.19;100841.38;5037062;28;20321;-69
2021/10/06 01:33:20;;;;;;;21.65;8.20;;;;;;;11.29;66.13;100845.97;5033166;28;20045;-69
2021/10/06 01:35:45;;;;;;;17.50;7.75;;;;;;;11.31;66.37;100847.50;5022962;28;20033;-69
2021/10/06 01:38:11;;;;;;;22.33;8.57;;;;;;;11.39;65.42;100847.66;5030626;28;20102;-69
2021/10/06 01:40:36;;;;;;;21.85;7.40;;;;;;;11.48;64.86;100851.31;5028247;28;20033;-69
2021/10/06 01:43:02;;;;;;;22.52;8.20;;;;;;;11.55;64.68;100846.28;5026212;28;20049;-69
2021/10/06 01:45:32;;;;;;;16.45;7.85;;;;;;;11.38;65.83;100853.09;5033230;28;20029;-69
2021/10/06 01:48:06;;;;;;;16.70;8.35;;;;;;;11.45;65.34;100851.59;5027108;28;20040;-69
2021/10/06 01:50:32;;;;;;;9.23;6.30;;;;;;;11.50;65.49;100852.84;5035619;28;20025;-69
2021/10/06 01:52:57;;;;;;;20.10;8.05;;;;;;;11.63;64.42;100851.72;5030469;28;20041;-69
2021/10/06 01:55:28;;;;;;;15.05;8.02;;;;;;;11.77;64.08;100853.91;5032060;28;20045;-69
2021/10/06 01:57:55;;;;;;;23.00;7.95;;;;;;;11.73;61.90;100852.53;5014777;28;20263;-69
2021/10/06 02:00:22;;;;;;;23.40;7.72;;;;;;;11.55;62.35;100860.38;5021213;28;20041;-69
2021/10/06 02:02:47;;;;;;;21.40;7.63;;;;;;;11.48;62.67;100860.09;5021080;28;20022;-69
2021/10/06 02:05:12;;;;;;;23.33;8.93;;;;;;;11.53;62.82;100841.09;5035398;28;20337;-69
2021/10/06 02:07:38;;;;;;;22.08;8.50;;;;;;;11.57;64.40;100853.09;5025823;28;20026;-69
2021/10/06 02:10:05;;;;;;;12.93;7.30;;;;;;;11.56;62.85;100855.91;5034236;28;20349;-69
2021/10/06 02:12:30;;;;;;;10.77;6.55;;;;;;;11.25;61.30;100857.84;5010381;28;20062;-69
2021/10/06 02:14:56;;;;;;;18.08;7.63;;;;;;;10.64;62.22;100856.22;5033884;28;20323;-69
2021/10/06 02:17:21;;;;;;;20.63;8.90;;;;;;;10.53;65.47;100858.97;5032403;28;20068;-69
2021/10/06 02:19:47;;;;;;;26.83;9.88;;;;;;;10.87;66.27;100855.00;5026822;28;20036;-69
2021/10/06 02:22:12;;;;;;;23.27;11.10;;;;;;;10.84;66.90;100857.94;5027910;28;20484;-69
2021/10/06 02:24:38;;;;;;;20.42;10.20;;;;;;;10.94;64.69;100844.69;5028959;28;20030;-69
2021/10/06 02:27:03;;;;;;;28.88;12.40;;;;;;;10.86;64.91;100858.63;5036515;28;20041;-69
2021/10/06 02:29:29;;;;;;;24.58;12.43;;;;;;;10.88;65.83;100862.00;5032054;28;20033;-69
2021/10/06 02:31:54;;;;;;;25.52;11.25;;;;;;;11.01;65.27;100864.38;5020478;28;20314;-69
2021/10/06 02:34:20;;;;;;;23.77;10.93;;;;;;;11.12;64.89;100856.28;5025320;28;20100;-69
2021/10/06 02:36:45;;;;;;;24.67;11.73;;;;;;;11.12;65.27;100863.41;5026479;28;20030;-69
2021/10/06 02:39:10;;;;;;;20.45;11.40;;;;;;;11.15;65.14;100849.88;5030637;28;20033;-69
2021/10/06 02:41:36;;;;;;;26.40;11.00;;;;;;;11.30;65.37;100852.97;5033125;28;20042;-69
2021/10/06 02:44:02;;;;;;;27.45;10.98;;;;;;;11.38;65.12;100858.41;5037092;28;20095;-69
2021/10/06 02:46:28;;;;;;;26.92;11.40;;;;;;;11.47;63.93;100839.03;5039604;28;20104;-69
2021/10/06 02:48:53;;;;;;;29.75;11.40;;;;;;;11.54;64.16;100856.03;5025890;28;20316;-69
2021/10/06 02:51:19;;;;;;;23.00;10.80;;;;;;;11.54;64.09;100850.75;5032624;28;20025;-69
2021/10/06 02:53:44;;;;;;;32.78;12.20;;;;;;;11.45;64.76;100852.44;5039053;28;20029;-69
2021/10/06 02:56:09;;;;;;;23.67;10.98;;;;;;;11.38;63.99;100853.94;5037571;28;20055;-69
2021/10/06 02:58:35;;;;;;;26.58;10.35;;;;;;;11.26;64.04;100822.41;5043371;28;20029;-69
2021/10/06 03:01:00;;;;;;;31.83;10.38;;;;;;;11.38;64.78;100855.75;5022427;28;20045;-69
2021/10/06 03:03:26;;;;;;;22.92;9.80;;;;;;;11.46;64.37;100851.44;5025262;28;20048;-69
2021/10/06 03:05:51;;;;;;;17.05;9.50;;;;;;;11.66;64.10;100854.91;5031334;28;20362;-69
2021/10/06 03:08:17;;;;;;;29.65;9.85;;;;;;;11.68;64.76;100855.59;5041918;28;20086;-69
2021/10/06 03:10:42;;;;;;;19.42;10.13;;;;;;;11.73;65.13;100858.66;5040787;28;20040;-69
2021/10/06 03:13:08;;;;;;;20.30;9.45;;;;;;;11.80;65.37;100856.31;5029095;28;20049;-69
2021/10/06 03:15:33;;;;;;;20.33;9.70;;;;;;;11.88;64.26;100852.94;5042013;28;20033;-69
2021/10/06 03:17:58;;;;;;;18.35;9.88;;;;;;;11.86;64.72;100857.56;5042683;28;20037;-69
2021/10/06 03:20:24;;;;;;;26.38;9.50;;;;;;;12.01;64.50;100862.28;5039962;28;20038;-69
2021/10/06 03:22:49;;;;;;;17.92;9.93;;;;;;;11.94;65.29;100857.69;5031592;28;20334;-69
2021/10/06 03:25:15;;;;;;;22.58;9.63;;;;;;;12.02;65.34;100863.94;5028026;28;20059;-69
2021/10/06 03:27:40;;;;;;;21.85;9.85;;;;;;;12.14;64.05;100868.09;5030401;28;20026;-69
2021/10/06 03:30:07;;;;;;;22.58;10.07;;;;;;;12.05;64.50;100865.47;5032064;28;20033;-69
2021/10/06 03:32:32;;;;;;;21.15;9.85;;;;;;;12.19;64.01;100862.34;5035538;28;20197;-70
2021/10/06 03:34:58;;;;;;;20.05;9.85;;;;;;;12.22;64.19;100856.75;5029229;28;20030;-69
2021/10/06 03:37:23;;;;;;;26.65;9.80;;;;;;;12.27;63.85;100853.66;5023317;28;20042;-70
2021/10/06 03:39:49;;;;;;;26.23;10.10;;;;;;;12.40;63.05;100857.66;5029415;28;20246;-69
2021/10/06 03:42:14;;;;;;;24.98;9.95;;;;;;;12.42;63.34;100844.22;5032666;28;20049;-69
2021/10/06 03:44:40;;;;;;;20.83;9.38;;;;;;;12.54;63.29;100847.56;5032040;28;20029;-69
2021/10/06 03:47:05;;;;;;;25.30;9.77;;;;;;;12.55;62.77;100852.72;5038538;28;20041;-69
2021/10/06 03:49:31;;;;;;;24.88;9.77;;;;;;;12.56;63.41;100833.13;5035529;28;20076;-69
2021/10/06 03:51:56;;;;;;;27.95;10.27;;;;;;;12.67;62.93;100842.72;5031638;28;20037;-69
2021/10/06 03:54:21;;;;;;;23.30;10.75;;;;;;;12.90;62.75;100835.16;5038590;28;20045;-69
2021/10/06 03:56:47;;;;;;;21.15;10.10;;;;;;;12.78;63.01;100835.38;5032483;28;20327;-69
2021/10/06 03:59:12;;;;;;;18.67;9.52;;;;;;;12.60;63.97;100789.34;5027752;28;20034;-69
2021/10/06 04:01:38;;;;;;;27.85;11.90;;;;;;;12.54;64.82;100808.53;5026563;28;20013;-69
2021/10/06 04:04:03;;;;;;;24.25;11.93;;;;;;;12.49;65.42;100833.88;5037522;28;20039;-69
2021/10/06 04:06:29;;;;;;;20.27;9.93;;;;;;;12.54;64.96;100840.41;5041966;28;20315;-70
2021/10/06 04:08:54;;;;;;;24.58;10.98;;;;;;;12.40;65.33;100830.25;5037067;28;20091;-70
2021/10/06 04:11:20;;;;;;;36.25;11.55;;;;;;;12.49;65.43;100848.00;5036467;28;20028;-69
2021/10/06 04:13:45;;;;;;;23.70;11.25;;;;;;;12.65;64.82;100842.03;5041814;28;20041;-69
2021/10/06 04:16:10;;;;;;;28.65;12.30;;;;;;;12.58;65.09;100833.81;5035005;28;20038;-69
2021/10/06 04:18:36;;;;;;;32.92;14.25;;;;;;;12.50;64.92;100847.00;5034572;28;20041;-69
2021/10/06 04:21:02;;;;;;;25.90;12.43;;;;;;;12.65;64.52;100839.38;5023858;28;20037;-69
2021/10/06 04:23:27;;;;;;;34.50;11.80;;;;;;;12.79;64.13;100839.72;5021822;28;20037;-69
2021/10/06 04:25:52;;;;;;;27.58;11.90;;;;;;;12.88;64.04;100842.44;5022367;28;20037;-69
2021/10/06 04:28:18;;;;;;;34.88;12.65;;;;;;;12.93;63.45;100832.22;5023431;28;20081;-69
2021/10/06 04:30:43;;;;;;;29.13;10.98;;;;;;;12.90;63.62;100829.84;5022747;28;20034;-69
2021/10/06 04:33:09;;;;;;;22.25;10.77;;;;;;;12.99;63.38;100828.94;5028878;28;20049;-69
2021/10/06 04:35:34;;;;;;;29.80;11.10;;;;;;;13.09;63.69;100827.88;5031403;28;20034;-70
2021/10/06 04:38:00;;;;;;;26.20;12.48;;;;;;;13.19;63.16;100833.16;5035128;28;20231;-69
2021/10/06 04:40:25;;;;;;;24.55;11.52;;;;;;;13.27;63.18;100833.22;5032798;28;20032;-69
2021/10/06 04:42:51;;;;;;;23.65;10.95;;;;;;;13.24;63.51;100830.88;5028253;28;20108;-69
2021/10/06 04:45:17;;;;;;;29.33;10.98;;;;;;;13.28;62.89;100831.41;5028824;28;20052;-69
2021/10/06 04:47:42;;;;;;;25.15;10.85;;;;;;;13.07;64.47;100834.34;5033127;28;20030;-69
2021/10/06 04:50:09;;;;;;;26.42;11.40;;;;;;;12.93;65.31;100830.38;5037239;28;20228;-69
2021/10/06 04:52:34;;;;;;;22.48;11.30;;;;;;;12.98;64.48;100829.94;5032411;28;20336;-69
2021/10/06 04:55:00;;;;;;;33.20;11.82;;;;;;;13.08;64.14;100834.19;5041243;28;20304;-69
2021/10/06 04:57:25;;;;;;;31.70;11.70;;;;;;;13.34;62.90;100822.81;5030499;28;20106;-69
2021/10/06 04:59:51;;;;;;;29.38;12.30;;;;;;;13.29;64.85;100828.59;5027147;28;20281;-70
2021/10/06 05:02:16;;;;;;;35.80;11.88;;;;;;;13.27;64.64;100837.72;5021452;28;20037;-69
2021/10/06 05:04:42;;;;;;;31.77;12.50;;;;;;;13.21;64.65;100817.88;5030964;28;20037;-69
2021/10/06 05:07:07;;;;;;;20.67;11.05;;;;;;;13.32;63.68;100824.78;5027153;28;20065;-69
2021/10/06 05:09:33;;;;;;;32.08;12.55;;;;;;;13.44;63.80;100834.19;5032655;28;20061;-70
2021/10/06 05:11:59;;;;;;;41.78;14.05;;;;;;;13.30;64.01;100832.91;5033441;28;20341;-69
2021/10/06 05:14:24;;;;;;;32.28;12.75;;;;;;;13.36;63.41;100832.31;5036266;28;20030;-69
2021/10/06 05:16:52;;;;;;;40.78;11.68;;;;;;;13.23;63.89;100821.22;5023209;28;20026;-69
2021/10/06 05:19:19;;;;;;;40.88;12.73;;;;;;;13.24;63.47;100836.19;5030509;28;20037;-69
2021/10/06 05:21:44;;;;;;;39.75;14.20;;;;;;;13.21;64.17;100833.84;5037437;28;20037;-69
2021/10/06 05:24:09;;;;;;;37.25;12.95;;;;;;;13.19;64.15;100832.31;5033183;28;20048;-70
2021/10/06 05:26:35;;;;;;;32.20;11.20;;;;;;;13.35;63.78;100838.63;5034114;28;20364;-70
2021/10/06 05:29:00;;;;;;;33.10;12.93;;;;;;;13.42;63.20;100841.50;5026904;28;20044;-69
2021/10/06 05:31:26;;;;;;;38.58;11.43;;;;;;;13.32;64.30;100833.59;5009137;28;20033;-69
2021/10/06 05:33:52;;;;;;;27.48;11.15;;;;;;;13.52;63.38;100838.75;5034407;28;20041;-69
2021/10/06 05:36:17;;;;;;;29.75;11.90;;;;;;;13.53;63.38;100837.78;5040484;28;20084;-69
2021/10/06 05:38:42;;;;;;;34.15;13.90;;;;;;;13.57;62.37;100832.00;5029852;28;20040;-69
2021/10/06 05:41:08;;;;;;;34.63;14.05;;;;;;;13.66;62.22;100828.41;5024388;28;20041;-69
2021/10/06 05:43:33;;;;;;;34.58;14.40;;;;;;;13.76;61.46;100822.16;5029400;28;20034;-69
2021/10/06 05:45:59;;;;;;;30.40;13.18;;;;;;;13.71;61.75;100822.63;5024046;28;20033;-69
2021/10/06 05:48:24;;;;;;;32.65;13.02;;;;;;;13.48;61.98;100784.19;5038124;28;20033;-70
2021/10/06 05:50:50;;;;;;;42.25;14.88;;;;;;;13.65;62.40;100813.44;5040427;28;20240;-69
2021/10/06 05:53:15;;;;;;;40.15;14.75;;;;;;;13.48;62.70;100805.47;5029468;28;20090;-69
2021/10/06 05:55:41;;;;;;;33.65;13.13;;;;;;;13.37;63.10;100806.53;5032446;28;20323;-69
2021/10/06 05:58:06;;;;;;;31.25;12.48;;;;;;;13.56;62.55;100798.41;5039417;28;20087;-69
2021/10/06 06:00:31;;;;;;;40.28;14.07;;;;;;;13.72;62.43;100814.47;5040496;28;20075;-69
2021/10/06 06:02:57;;;;;;;42.05;14.50;;;;;;;13.90;61.75;100818.91;5031674;28;20052;-70
2021/10/06 06:05:23;;;;;;;38.22;13.43;;;;;;;13.90;62.12;100821.56;5033945;28;20037;-69
2021/10/06 06:07:48;;;;;;;27.15;13.45;;;;;;;14.04;61.17;100827.16;5030294;28;20040;-69
2021/10/06 06:10:14;;;;;;;38.90;15.18;;;;;;;13.92;61.60;100831.09;5031192;28;20036;-69
2021/10/06 06:12:42;;;;;;;26.88;12.75;;;;;;;13.53;62.57;100837.78;5016146;28;20204;-69
2021/10/06 06:15:08;;;;;;;27.98;12.60;;;;;;;13.54;62.90;100842.13;5033736;28;20056;-69
2021/10/06 06:17:37;;;;;;;21.05;11.40;;;;;;;13.73;61.53;100839.28;5035588;28;20042;-70
2021/10/06 06:20:08;;;;;;;25.67;11.15;;;;;;;13.91;60.76;100836.56;5029641;28;20071;-69
2021/10/06 06:22:34;;;;;;;19.15;9.95;;;;;;;14.12;60.24;100831.69;5036663;28;20297;-70
2021/10/06 06:24:59;;;;;;;24.48;9.23;;;;;;;14.48;58.55;100837.72;5031379;28;20025;-70
2021/10/06 06:27:25;;;;;;;32.55;11.55;;;;;;;14.49;58.97;100844.72;5037369;28;20238;-70
2021/10/06 06:29:50;;;;;;;29.33;12.70;;;;;;;14.61;58.43;100847.97;5032029;28;20093;-70
2021/10/06 06:32:15;;;;;;;24.45;11.55;;;;;;;14.56;58.24;100848.41;5040361;28;20282;-70
2021/10/06 06:34:41;;;;;;;28.67;12.55;;;;;;;14.68;57.63;100841.81;5044809;28;20320;-69
2021/10/06 06:37:06;;;;;;;23.40;9.98;;;;;;;14.86;56.76;100855.03;5044980;28;20037;-70
2021/10/06 06:39:32;;;;;;;31.38;11.38;;;;;;;14.96;56.29;100855.72;5044592;28;20033;-70
2021/10/06 06:41:57;;;;;;;30.38;12.32;;;;;;;14.85;56.74;100849.84;5044482;28;20039;-69
2021/10/06 06:44:22;;;;;;;29.10;12.70;;;;;;;14.82;56.80;100847.53;5044930;28;20045;-69
2021/10/06 06:46:48;;;;;;;30.85;13.27;;;;;;;14.49;58.17;100852.72;5044440;28;20196;-69
2021/10/06 06:49:13;;;;;;;33.97;14.82;;;;;;;14.40;59.61;100853.63;5044758;28;20034;-69
2021/10/06 06:51:39;;;;;;;48.53;19.50;;;;;;;13.90;62.42;100859.69;5026879;28;20025;-69
2021/10/06 06:54:04;;;;;;;38.30;17.50;;;;;;;13.84;63.08;100856.81;5044051;28;20368;-69
2021/10/06 06:56:30;;;;;;;32.00;15.63;;;;;;;13.66;64.68;100855.03;5044990;28;20033;-69
2021/10/06 06:58:56;;;;;;;33.28;16.23;;;;;;;13.46;65.42;100853.50;5044363;28;20357;-69
2021/10/06 07:01:21;;;;;;;29.20;15.43;;;;;;;13.50;64.44;100851.38;5043898;28;20029;-69
2021/10/06 07:03:47;;;;;;;33.83;15.60;;;;;;;13.71;64.01;100851.91;5044205;28;20087;-69
2021/10/06 07:06:12;;;;;;;25.63;13.30;;;;;;;14.00;62.51;100855.09;5044409;28;20033;-69
2021/10/06 07:08:38;;;;;;;32.70;15.27;;;;;;;14.35;61.32;100856.78;5043832;28;20041;-69
2021/10/06 07:11:03;;;;;;;29.15;13.35;;;;;;;14.62;60.70;100855.78;5033509;28;20109;-69
2021/10/06 07:13:30;;;;;;;30.48;13.18;;;;;;;14.47;60.86;100860.03;5040563;28;20025;-69
2021/10/06 07:15:56;;;;;;;27.35;12.05;;;;;;;14.59;60.44;100857.94;5043975;28;20021;-69
2021/10/06 07:18:21;;;;;;;29.45;13.60;;;;;;;14.64;59.66;100855.63;5044060;28;20059;-69
2021/10/06 07:20:47;;;;;;;23.67;12.52;;;;;;;14.68;59.22;100852.47;5044266;28;20041;-69
2021/10/06 07:23:12;;;;;;;29.42;13.27;;;;;;;14.52;60.34;100840.91;5043709;28;20235;-69
2021/10/06 07:25:38;;;;;;;22.02;11.68;;;;;;;14.73;59.72;100840.50;5044010;28;20030;-70
2021/10/06 07:28:04;;;;;;;26.30;10.48;;;;;;;15.20;58.45;100825.56;5043999;28;20026;-70
2021/10/06 07:30:29;;;;;;;26.73;10.82;;;;;;;15.75;56.18;100837.47;5043649;28;20076;-69
2021/10/06 07:32:55;;;;;;;18.92;9.68;;;;;;;16.35;54.22;100834.31;5043986;28;20041;-70
2021/10/06 07:35:20;;;;;;;22.85;9.88;;;;;;;16.46;53.60;100826.75;5043396;28;20319;-69
2021/10/06 07:37:46;;;;;;;24.05;9.90;;;;;;;16.75;52.90;100841.38;5043479;28;20251;-69
2021/10/06 07:40:12;;;;;;;20.75;7.88;;;;;;;17.05;52.10;100829.81;5043608;28;20304;-70
2021/10/06 07:42:37;;;;;;;22.15;8.43;;;;;;;17.48;50.42;100827.47;5043485;28;20327;-70
2021/10/06 07:45:03;;;;;;;22.88;8.88;;;;;;;18.04;49.02;100831.50;5043392;28;20032;-70
2021/10/06 07:47:29;;;;;;;17.27;9.15;;;;;;;17.30;50.78;100833.16;5043558;28;20041;-70
2021/10/06 07:49:54;;;;;;;21.10;8.45;;;;;;;17.52;50.35;100828.78;5043323;28;20204;-70
2021/10/06 07:52:20;;;;;;;16.55;9.05;;;;;;;17.45;50.44;100830.50;5042946;28;20040;-69
2021/10/06 07:54:45;;;;;;;26.88;8.73;;;;;;;17.52;50.65;100823.44;5043387;28;20274;-69
2021/10/06 07:57:10;;;;;;;18.00;7.95;;;;;;;17.37;51.70;100820.72;5043089;28;20029;-70
2021/10/06 07:59:36;;;;;;;16.20;8.65;;;;;;;17.57;50.26;100813.00;5043346;28;20075;-69
2021/10/06 08:02:03;;;;;;;18.05;8.13;;;;;;;17.71;49.82;100811.44;5043231;28;20025;-70
2021/10/06 08:04:28;;;;;;;20.55;8.05;;;;;;;17.89;49.60;100819.94;5043114;28;20037;-70
2021/10/06 08:06:54;;;;;;;16.55;7.55;;;;;;;17.94;49.37;100822.06;5025457;28;20032;-70
2021/10/06 08:09:19;;;;;;;18.85;7.88;;;;;;;17.68;49.98;100817.13;5042617;28;20033;-70
2021/10/06 08:11:45;;;;;;;20.58;8.52;;;;;;;17.87;49.50;100816.63;5043216;28;20026;-70
2021/10/06 08:14:11;;;;;;;20.58;7.63;;;;;;;18.16;49.79;100807.75;5042973;28;20029;-70
2021/10/06 08:16:37;;;;;;;19.27;7.57;;;;;;;17.89;50.09;100786.97;5042945;28;20037;-70
2021/10/06 08:19:02;;;;;;;15.57;7.95;;;;;;;17.89;49.75;100805.72;5042997;28;20026;-70
2021/10/06 08:21:27;;;;;;;15.65;7.97;;;;;;;17.67;51.38;100805.56;5043176;28;20071;-70
2021/10/06 08:23:53;;;;;;;14.05;7.15;;;;;;;17.61;50.84;100808.94;5042435;28;20025;-70
2021/10/06 08:26:19;;;;;;;14.35;7.00;;;;;;;17.14;52.04;100803.81;5043083;28;20124;-70
2021/10/06 08:28:45;;;;;;;15.18;7.35;;;;;;;17.22;52.49;100803.75;5042724;28;20028;-69
2021/10/06 08:31:10;;;;;;;19.33;7.07;;;;;;;17.27;52.03;100803.22;5042936;28;20017;-70
2021/10/06 08:33:35;;;;;;;12.10;6.65;;;;;;;17.34;51.78;100796.13;5042644;28;20043;-69
2021/10/06 08:36:01;;;;;;;18.90;7.07;;;;;;;17.48;51.47;100787.31;5042310;28;20033;-70
2021/10/06 08:38:26;;;;;;;14.15;6.43;;;;;;;17.63;51.73;100808.75;5042222;28;20036;-69
2021/10/06 08:40:52;;;;;;;13.27;6.57;;;;;;;17.62;50.92;100799.91;5042295;28;20034;-70
2021/10/06 08:43:18;;;;;;;14.18;7.00;;;;;;;17.98;50.23;100786.69;5042425;28;20040;-70
2021/10/06 08:45:44;;;;;;;9.77;5.85;;;;;;;18.17;49.75;100796.84;5024440;28;20041;-70
2021/10/06 08:48:10;;;;;;;18.17;6.85;;;;;;;18.08;49.05;100789.09;5042191;28;20288;-69
2021/10/06 08:50:37;;;;;;;13.15;4.95;;;;;;;17.95;48.71;100795.09;5042433;28;20045;-69
2021/10/06 08:53:04;;;;;;;14.07;4.75;;;;;;;17.82;48.51;100789.53;5042038;28;20033;-69
2021/10/06 08:55:30;;;;;;;10.68;5.78;;;;;;;17.61;48.80;100790.19;5042433;28;20389;-70
2021/10/06 08:58:06;;;;;;;8.18;4.70;;;;;;;17.93;47.49;100783.72;5042191;28;20045;-69
2021/10/06 09:00:57;;;;;;;9.20;4.75;;;;;;;18.07;47.02;100780.22;5042373;28;20025;-69
2021/10/06 09:03:32;;;;;;;60.33;7.13;;;;;;;17.93;46.32;100790.94;5042097;28;20064;-69
2021/10/06 09:06:09;;;;;;;13.60;4.88;;;;;;;17.96;45.45;100785.22;5042259;28;20025;-70
2021/10/06 09:08:36;;;;;;;9.43;5.75;;;;;;;17.99;46.53;100791.03;5041903;28;20285;-69
2021/10/06 09:11:03;;;;;;;14.18;6.15;;;;;;;18.11;46.16;100791.41;5038894;28;20230;-69
2021/10/06 09:13:34;;;;;;;11.38;6.07;;;;;;;18.09;46.24;100782.72;5030934;28;20342;-70
2021/10/06 09:16:02;;;;;;;16.42;6.50;;;;;;;18.45;45.62;100790.81;5030380;28;20026;-70
2021/10/06 09:18:30;;;;;;;14.15;5.63;;;;;;;18.54;44.48;100781.63;5011178;28;20223;-70
2021/10/06 09:21:01;;;;;;;16.10;5.45;;;;;;;18.15;44.82;100795.38;5027734;28;20032;-69
2021/10/06 09:23:29;;;;;;;15.80;5.72;;;;;;;17.96;45.00;100786.03;5033804;28;20037;-69
2021/10/06 09:26:03;;;;;;;14.93;5.50;;;;;;;18.03;45.11;100776.25;5035139;28;20072;-69
2021/10/06 09:28:31;;;;;;;11.40;5.68;;;;;;;18.11;44.36;100769.97;5033749;28;20034;-69
2021/10/06 09:31:02;;;;;;;16.23;5.20;;;;;;;18.33;44.00;100771.69;5032260;28;20365;-70
2021/10/06 09:33:41;;;;;;;14.50;6.10;;;;;;;18.09;44.92;100767.47;5031520;28;20029;-69
2021/10/06 09:36:09;;;;;;;14.80;6.05;;;;;;;17.99;45.68;100774.94;5031626;28;20024;-69
2021/10/06 09:38:44;;;;;;;18.50;6.60;;;;;;;17.80;45.79;100762.94;5033346;28;20025;-70
2021/10/06 09:41:33;;;;;;;18.15;6.88;;;;;;;17.86;46.27;100774.78;5033408;28;20041;-69
2021/10/06 09:44:21;;;;;;;14.10;7.10;;;;;;;17.41;46.81;100773.81;5033935;28;20033;-69
2021/10/06 09:46:57;;;;;;;21.17;6.97;;;;;;;17.60;46.50;100768.97;5030073;28;20025;-69
2021/10/06 09:49:34;;;;;;;15.35;6.78;;;;;;;17.97;45.41;100758.22;5032891;28;20168;-69
2021/10/06 09:52:18;;;;;;;11.15;5.35;;;;;;;17.95;45.30;100759.44;5035757;28;20037;-69
2021/10/06 09:54:51;;;;;;;15.48;5.28;;;;;;;18.21;44.48;100751.75;5033924;28;20036;-69
2021/10/06 09:57:38;;;;;;;16.47;5.43;;;;;;;18.14;44.72;100756.19;5034877;28;20043;-69
2021/10/06 10:00:06;;;;;;;12.70;5.20;;;;;;;17.88;44.85;100758.50;5037968;28;20045;-69
2021/10/06 10:02:32;;;;;;;13.02;4.95;;;;;;;18.02;44.22;100752.31;5038152;28;20033;-69
2021/10/06 10:04:58;;;;;;;7.00;4.78;;;;;;;18.01;44.21;100748.81;5036872;28;20040;-69
2021/10/06 10:07:25;;;;;;;16.45;6.47;;;;;;;18.17;43.45;100753.97;5038427;28;20037;-69
2021/10/06 10:09:52;;;;;;;13.57;5.05;;;;;;;18.30;43.11;100752.47;5039455;28;20041;-69
2021/10/06 10:12:19;;;;;;;10.75;4.07;;;;;;;18.30;43.29;100744.41;5019389;28;20100;-69
2021/10/06 10:14:45;;;;;;;11.80;4.18;;;;;;;18.37;42.67;100726.56;5038146;28;20034;-69
2021/10/06 10:17:11;;;;;;;13.30;5.20;;;;;;;18.31;43.90;100730.81;5037299;28;20037;-69
2021/10/06 10:19:37;;;;;;;11.77;4.75;;;;;;;18.13;43.15;100733.91;5036087;28;20044;-69
2021/10/06 10:22:04;;;;;;;10.60;4.28;;;;;;;18.31;43.02;100719.25;5037034;28;20096;-69
2021/10/06 10:24:30;;;;;;;11.75;4.68;;;;;;;18.50;42.61;100721.34;5035310;28;20088;-69
2021/10/06 10:26:57;;;;;;;13.32;4.35;;;;;;;18.57;42.19;100724.09;5036028;28;20026;-69
2021/10/06 10:29:38;;;;;;;10.35;4.03;;;;;;;18.46;41.44;100715.53;5039428;28;20044;-69
2021/10/06 10:32:10;;;;;;;13.90;4.57;;;;;;;18.63;41.50;100709.94;5037893;28;20052;-69
2021/10/06 10:35:07;;;;;;;10.60;3.97;;;;;;;18.31;42.41;100713.91;5036930;28;19917;-69
2021/10/06 10:37:51;;;;;;;6.25;3.78;;;;;;;18.21;42.26;100716.06;5033400;28;20030;-69
2021/10/06 10:43:07;;;;;;;13.80;4.13;;;;;;;18.45;41.53;100708.50;5035708;28;20041;-69
2021/10/06 10:45:37;;;;;;;21.92;5.30;;;;;;;18.49;40.91;100704.41;5036973;28;20101;-69
2021/10/06 10:48:07;;;;;;;9.98;4.60;;;;;;;18.34;42.01;100700.13;5037829;28;20033;-69
2021/10/06 10:50:59;;;;;;;10.43;4.43;;;;;;;18.38;42.79;100699.56;5036012;28;20055;-69
2021/10/06 10:53:50;;;;;;;10.68;4.18;;;;;;;18.70;41.28;100687.53;5027632;28;20045;-70
2021/10/06 10:56:31;;;;;;;10.30;3.88;;;;;;;18.74;39.91;100688.84;5012610;28;20048;-69
2021/10/06 10:59:05;;;;;;;7.93;3.25;;;;;;;18.47;40.63;100687.69;5035474;28;20076;-69
2021/10/06 11:01:46;;;;;;;;;;;;;;;18.52;40.90;100685.25;5037384;28;20044;-69
2021/10/06 11:04:15;;;;;;;6.43;3.90;;;;;;;18.21;41.36;100668.63;5038345;28;19925;-69
2021/10/06 11:06:46;;;;;;;9.27;4.00;;;;;;;18.56;40.98;100666.94;5034577;28;20088;-69
2021/10/06 11:09:30;;;;;;;12.57;4.30;;;;;;;18.51;40.44;100666.69;5034466;28;20037;-69
2021/10/06 11:12:18;;;;;;;8.52;3.80;;;;;;;18.73;40.42;100656.84;5036114;28;20331;-70
2021/10/06 11:14:49;;;;;;;11.43;4.35;;;;;;;18.96;39.18;100653.94;5023814;28;20084;-70
2021/10/06 11:17:16;;;;;;;8.98;3.58;;;;;;;18.94;39.05;100650.63;5036820;28;20323;-70